createdAt,value
2023-04-15T00:01:53.874Z,2.30
2023-04-15T00:04:21.050Z,2.40
2023-04-15T00:06:56.548Z,2.17
2023-04-15T00:09:26.008Z,2.20
2023-04-15T00:11:53.250Z,1.83
2023-04-15T00:14:20.643Z,1.90
2023-04-15T00:16:47.943Z,2.38
2023-04-15T00:19:16.428Z,2.53
2023-04-15T00:21:43.768Z,1.95
2023-04-15T00:24:10.859Z,2.30
2023-04-15T00:26:38.000Z,2.35
2023-04-15T00:29:05.204Z,1.77
2023-04-15T00:31:33.117Z,2.47
2023-04-15T00:34:00.968Z,2.30
2023-04-15T00:36:28.130Z,2.22
2023-04-15T00:38:55.211Z,2.03
2023-04-15T00:41:25.653Z,2.40
2023-04-15T00:43:52.905Z,2.47
2023-04-15T00:46:21.582Z,2.90
2023-04-15T00:48:48.943Z,2.67
2023-04-15T00:51:17.896Z,2.42
2023-04-15T00:53:45.086Z,3.40
2023-04-15T00:56:13.006Z,2.53
2023-04-15T00:58:40.164Z,3.40
2023-04-15T01:01:07.400Z,2.25
2023-04-15T01:03:34.702Z,3.13
2023-04-15T01:06:04.053Z,2.75
2023-04-15T01:08:31.954Z,2.40
2023-04-15T01:11:02.343Z,2.33
2023-04-15T01:13:30.638Z,2.80
2023-04-15T01:15:58.130Z,3.60
2023-04-15T01:18:26.114Z,2.13
2023-04-15T01:20:53.896Z,2.20
2023-04-15T01:25:50.991Z,2.22
2023-04-15T01:28:18.305Z,2.35
2023-04-15T01:30:45.777Z,2.75
2023-04-15T01:33:12.937Z,2.35
2023-04-15T01:35:41.076Z,2.58
2023-04-15T01:38:09.701Z,1.98
2023-04-15T01:40:36.989Z,2.03
2023-04-15T01:43:04.148Z,3.30
2023-04-15T01:45:31.441Z,2.45
2023-04-15T01:47:58.660Z,2.08
2023-04-15T01:50:26.325Z,2.10
2023-04-15T01:52:57.443Z,2.42
2023-04-15T01:55:27.165Z,2.88
2023-04-15T01:57:54.280Z,1.88
2023-04-15T02:00:22.494Z,1.80
2023-04-15T02:02:50.196Z,2.00
2023-04-15T02:12:40.961Z,3.53
2023-04-15T02:15:09.078Z,3.13
2023-04-15T02:17:37.694Z,2.17
2023-04-15T02:20:08.832Z,1.90
2023-04-15T02:22:35.823Z,1.73
2023-04-15T02:25:04.052Z,1.65
2023-04-15T02:27:31.339Z,1.73
2023-04-15T02:29:58.437Z,1.70
2023-04-15T02:32:25.773Z,1.92
2023-04-15T02:34:53.343Z,1.75
2023-04-15T02:37:20.657Z,1.52
2023-04-15T02:39:48.673Z,1.73
2023-04-15T02:42:18.051Z,2.33
2023-04-15T02:44:45.860Z,1.45
2023-04-15T02:47:14.136Z,1.55
2023-04-15T02:49:41.360Z,1.63
2023-04-15T02:52:08.446Z,1.88
2023-04-15T02:54:35.700Z,1.80
2023-04-15T02:57:06.956Z,1.63
2023-04-15T02:59:34.001Z,1.60
2023-04-15T03:02:01.327Z,1.73
2023-04-15T03:04:30.321Z,1.45
2023-04-15T03:06:57.662Z,1.33
2023-04-15T03:09:24.958Z,1.52
2023-04-15T03:11:55.728Z,1.05
2023-04-15T03:14:23.088Z,1.50
2023-04-15T03:16:52.125Z,1.50
2023-04-15T03:19:19.239Z,1.75
2023-04-15T03:21:46.350Z,1.40
2023-04-15T03:24:13.927Z,1.33
2023-04-15T03:26:41.084Z,1.35
2023-04-15T03:29:08.133Z,0.95
2023-04-15T03:31:35.354Z,1.17
2023-04-15T03:34:03.601Z,1.02
2023-04-15T03:36:35.152Z,1.08
2023-04-15T03:39:05.074Z,1.20
2023-04-15T03:41:33.110Z,1.17
2023-04-15T03:44:02.548Z,1.33
2023-04-15T03:46:29.678Z,1.65
2023-04-15T03:48:56.751Z,1.23
2023-04-15T03:51:23.891Z,1.83
2023-04-15T03:53:51.320Z,1.63
2023-04-15T03:56:18.479Z,1.30
2023-04-15T03:58:45.586Z,1.75
2023-04-15T04:01:12.848Z,1.85
2023-04-15T04:03:40.206Z,1.10
2023-04-15T04:06:07.454Z,1.63
2023-04-15T04:08:34.571Z,1.52
2023-04-15T04:11:01.689Z,1.65
2023-04-15T04:13:28.913Z,1.25
2023-04-15T04:16:00.298Z,1.65
2023-04-15T04:18:27.362Z,1.52
2023-04-15T04:20:57.592Z,2.45
2023-04-15T04:23:24.852Z,1.90
2023-04-15T04:25:52.844Z,2.17
2023-04-15T04:28:19.933Z,2.60
2023-04-15T04:30:47.192Z,2.33
2023-04-15T04:33:14.376Z,3.20
2023-04-15T04:35:41.555Z,2.40
2023-04-15T04:38:08.879Z,2.08
2023-04-15T04:40:35.996Z,2.88
2023-04-15T04:43:03.096Z,2.53
2023-04-15T04:45:30.166Z,2.47
2023-04-15T04:47:57.436Z,2.75
2023-04-15T04:50:24.710Z,2.92
2023-04-15T04:52:51.942Z,2.55
2023-04-15T04:55:19.078Z,2.20
2023-04-15T04:57:46.245Z,1.95
2023-04-15T05:00:14.315Z,1.73
2023-04-15T05:02:44.341Z,2.08
2023-04-15T05:05:12.120Z,2.30
2023-04-15T05:10:07.527Z,1.85
2023-04-15T05:12:34.588Z,2.30
2023-04-15T05:15:01.798Z,2.25
2023-04-15T05:17:31.481Z,2.22
2023-04-15T05:19:58.595Z,2.60
2023-04-15T05:22:27.624Z,1.90
2023-04-15T05:24:54.712Z,2.50
2023-04-15T05:27:22.884Z,2.40
2023-04-15T05:29:51.393Z,2.83
2023-04-15T05:32:21.518Z,2.30
2023-04-15T05:34:48.544Z,2.78
2023-04-15T05:37:15.971Z,2.45
2023-04-15T05:39:43.172Z,2.78
2023-04-15T05:42:10.381Z,2.88
2023-04-15T05:44:37.543Z,2.75
2023-04-15T05:47:05.183Z,2.70
2023-04-15T05:52:02.744Z,2.72
2023-04-15T05:54:29.983Z,1.70
2023-04-15T05:56:58.074Z,2.65
2023-04-15T05:59:25.475Z,2.47
2023-04-15T06:01:55.586Z,2.03
2023-04-15T06:04:23.225Z,2.83
2023-04-15T06:09:17.859Z,1.92
2023-04-15T06:11:45.093Z,1.70
2023-04-15T06:14:12.509Z,1.75
2023-04-15T06:16:42.140Z,1.35
2023-04-15T06:19:15.099Z,1.92
2023-04-15T06:21:44.449Z,1.08
2023-04-15T06:24:12.547Z,1.23
2023-04-15T06:26:39.701Z,1.52
2023-04-15T06:29:06.896Z,1.58
2023-04-15T06:31:36.731Z,1.10
2023-04-15T06:34:06.518Z,1.35
2023-04-15T06:36:33.860Z,1.08
2023-04-15T06:39:01.809Z,1.58
2023-04-15T06:41:29.312Z,1.50
2023-04-15T06:43:56.512Z,1.30
2023-04-15T06:46:24.418Z,1.33
2023-04-15T06:48:52.826Z,1.40
2023-04-15T06:51:20.215Z,1.30
2023-04-15T06:53:47.422Z,1.45
2023-04-15T06:56:14.620Z,1.80
2023-04-15T06:58:41.654Z,1.73
2023-04-15T07:01:12.843Z,1.55
2023-04-15T07:03:40.144Z,1.80
2023-04-15T07:06:07.901Z,1.60
2023-04-15T07:08:35.081Z,1.55
2023-04-15T07:11:02.719Z,1.80
2023-04-15T07:16:01.588Z,1.70
2023-04-15T07:18:31.394Z,2.03
2023-04-15T07:20:58.505Z,4.65
2023-04-15T07:23:25.705Z,5.47
2023-04-15T07:25:53.308Z,3.63
2023-04-15T07:28:21.106Z,2.47
2023-04-15T07:30:50.727Z,1.75
2023-04-15T07:33:20.987Z,1.30
2023-04-15T07:35:48.164Z,1.00
2023-04-15T07:38:15.749Z,1.17
2023-04-15T07:40:43.044Z,1.58
2023-04-15T07:43:10.290Z,1.13
2023-04-15T07:45:39.731Z,1.38
2023-04-15T07:48:07.232Z,2.05
2023-04-15T07:50:34.399Z,1.77
2023-04-15T07:53:01.520Z,1.48
2023-04-15T07:55:28.906Z,1.63
2023-04-15T07:57:56.056Z,1.33
2023-04-15T08:00:24.424Z,1.42
2023-04-15T08:02:54.539Z,1.20
2023-04-15T08:05:22.161Z,1.60
2023-04-15T08:07:49.432Z,1.40
2023-04-15T08:10:16.696Z,1.15
2023-04-15T08:12:49.322Z,1.23
2023-04-15T08:15:17.383Z,1.65
2023-04-15T08:17:44.443Z,1.10
2023-04-15T08:20:12.200Z,2.17
2023-04-15T08:22:39.968Z,2.75
2023-04-15T08:25:07.326Z,2.15
2023-04-15T08:27:34.669Z,2.65
2023-04-15T08:30:04.619Z,2.30
2023-04-15T08:32:32.314Z,2.67
2023-04-15T08:34:59.523Z,2.60
2023-04-15T08:37:30.279Z,3.78
2023-04-15T08:39:57.476Z,2.70
2023-04-15T08:42:31.973Z,3.53
2023-04-15T08:45:01.785Z,3.60
2023-04-15T08:47:32.251Z,2.38
2023-04-15T08:50:00.185Z,1.30
2023-04-15T08:52:28.443Z,1.55
2023-04-15T08:54:59.030Z,1.30
2023-04-15T08:57:28.656Z,1.05
2023-04-15T08:59:58.783Z,1.20
2023-04-15T09:02:27.586Z,0.80
2023-04-15T09:04:55.155Z,0.85
2023-04-15T09:07:27.418Z,0.80
2023-04-15T09:09:54.594Z,0.93
2023-04-15T09:12:22.159Z,1.05
2023-04-15T09:14:49.669Z,1.17
2023-04-15T09:17:21.746Z,1.13
2023-04-15T09:19:49.193Z,0.90
2023-04-15T09:22:16.875Z,0.57
2023-04-15T09:27:11.681Z,0.52
2023-04-15T09:29:39.162Z,0.80
2023-04-15T09:32:16.179Z,0.82
2023-04-15T09:34:44.705Z,1.20
2023-04-15T09:37:28.467Z,1.33
2023-04-15T09:42:28.813Z,1.20
2023-04-15T09:44:56.203Z,0.70
2023-04-15T09:47:33.082Z,0.40
2023-04-15T09:50:03.710Z,1.00
2023-04-15T09:52:32.357Z,2.08
2023-04-15T09:55:02.480Z,1.80
2023-04-15T09:57:36.850Z,1.00
2023-04-15T10:00:08.220Z,0.80
2023-04-15T10:02:43.425Z,0.93
2023-04-15T10:05:17.443Z,2.08
2023-04-15T10:10:20.085Z,1.85
2023-04-15T10:12:47.353Z,1.75
2023-04-15T10:15:17.941Z,2.03
2023-04-15T10:17:46.574Z,1.75
2023-04-15T10:20:15.448Z,2.03
2023-04-15T10:22:44.332Z,1.05
2023-04-15T10:25:16.614Z,1.48
2023-04-15T10:27:44.300Z,1.67
2023-04-15T10:30:12.499Z,1.20
2023-04-15T10:32:43.404Z,1.77
2023-04-15T10:35:18.909Z,1.30
2023-04-15T10:37:46.286Z,0.70
2023-04-15T10:40:40.462Z,1.05
2023-04-15T10:43:10.108Z,2.17
2023-04-15T10:45:40.345Z,1.40
2023-04-15T10:48:10.414Z,0.98
2023-04-15T10:50:41.458Z,1.30
2023-04-15T10:53:11.149Z,1.50
2023-04-15T10:55:49.235Z,1.85
2023-04-15T10:58:16.362Z,1.92
2023-04-15T11:00:55.860Z,1.60
2023-04-15T11:03:41.508Z,2.70
2023-04-15T11:07:00.695Z,1.40
2023-04-15T11:09:35.284Z,1.15
2023-04-15T11:12:10.759Z,1.90
2023-04-15T11:14:42.308Z,1.95
2023-04-15T11:17:11.418Z,3.05
2023-04-15T11:19:39.584Z,2.63
2023-04-15T11:22:30.835Z,1.92
2023-04-15T11:25:01.790Z,1.63
2023-04-15T11:27:37.615Z,1.13
2023-04-15T11:30:19.583Z,1.90
2023-04-15T11:32:47.510Z,1.80
2023-04-15T11:35:15.089Z,2.45
2023-04-15T11:37:52.587Z,1.75
2023-04-15T11:40:23.859Z,1.42
2023-04-15T11:42:58.424Z,0.82
2023-04-15T11:45:39.722Z,0.93
2023-04-15T11:48:15.958Z,0.60
2023-04-15T11:50:46.602Z,0.80
2023-04-15T11:53:19.105Z,0.63
2023-04-15T11:55:53.680Z,0.60
2023-04-15T11:58:26.429Z,0.73
2023-04-15T12:01:01.868Z,0.52
2023-04-15T12:03:40.499Z,0.88
2023-04-15T12:06:17.504Z,1.00
2023-04-15T12:08:56.965Z,8.73
2023-04-15T12:11:34.804Z,5.00
2023-04-15T12:14:16.664Z,1.13
2023-04-15T12:16:53.053Z,1.55
2023-04-15T12:19:27.733Z,1.55
2023-04-15T12:22:02.018Z,0.50
2023-04-15T12:24:35.069Z,0.22
2023-04-15T12:27:18.586Z,0.80
2023-04-15T12:30:10.948Z,0.60
2023-04-15T12:32:43.409Z,0.65
2023-04-15T12:35:24.180Z,0.80
2023-04-15T12:37:54.964Z,0.80
2023-04-15T12:40:22.415Z,0.40
2023-04-15T12:42:49.940Z,0.45
2023-04-15T12:45:21.611Z,0.30
2023-04-15T12:47:59.929Z,0.52
2023-04-15T12:50:27.361Z,0.40
2023-04-15T12:52:56.524Z,0.55
2023-04-15T12:55:26.991Z,1.05
2023-04-15T12:57:58.787Z,1.48
2023-04-15T13:00:26.223Z,1.00
2023-04-15T13:02:54.872Z,2.35
2023-04-15T13:05:22.411Z,0.50
2023-04-15T13:07:59.368Z,0.93
2023-04-15T13:10:26.849Z,1.08
2023-04-15T13:13:00.851Z,1.00
2023-04-15T13:15:41.062Z,1.15
2023-04-15T13:18:08.776Z,0.77
2023-04-15T13:20:36.176Z,2.30
2023-04-15T13:23:09.895Z,1.55
2023-04-15T13:25:37.702Z,1.48
2023-04-15T13:28:05.010Z,1.60
2023-04-15T13:30:32.569Z,1.83
2023-04-15T13:33:00.225Z,2.10
2023-04-15T13:35:27.483Z,1.70
2023-04-15T13:37:55.697Z,4.03
2023-04-15T13:40:22.985Z,2.80
2023-04-15T13:42:52.072Z,11.98
2023-04-15T13:45:19.578Z,1.65
2023-04-15T13:47:46.771Z,2.08
2023-04-15T13:50:14.005Z,1.83
2023-04-15T13:52:41.359Z,1.52
2023-04-15T13:55:20.440Z,1.30
2023-04-15T13:57:50.692Z,1.33
2023-04-15T14:00:18.094Z,1.83
2023-04-15T14:02:46.688Z,1.70
2023-04-15T14:05:14.010Z,1.48
2023-04-15T14:07:41.146Z,3.78
2023-04-15T14:12:35.560Z,2.85
2023-04-15T14:15:02.504Z,3.13
2023-04-15T14:17:29.597Z,2.33
2023-04-15T14:22:23.683Z,1.40
2023-04-15T14:27:20.471Z,1.42
2023-04-15T14:29:47.418Z,1.65
2023-04-15T14:32:15.685Z,1.50
2023-04-15T14:34:44.316Z,2.17
2023-04-15T14:37:11.363Z,1.98
2023-04-15T14:39:38.377Z,1.73
2023-04-15T14:42:05.596Z,1.80
2023-04-15T14:46:59.580Z,1.02
2023-04-15T14:49:27.318Z,1.00
2023-04-15T14:51:54.348Z,1.20
2023-04-15T14:54:22.416Z,1.30
2023-04-15T14:56:49.653Z,1.27
2023-04-15T14:59:16.660Z,1.30
2023-04-15T15:01:43.948Z,0.75
2023-04-15T15:04:11.858Z,1.77
2023-04-15T15:06:39.733Z,1.55
2023-04-15T15:09:07.081Z,1.63
2023-04-15T15:11:34.290Z,2.10
2023-04-15T15:14:01.332Z,2.92
2023-04-15T15:16:29.398Z,2.33
2023-04-15T15:18:56.569Z,1.55
2023-04-15T15:21:23.925Z,1.85
2023-04-15T15:26:19.453Z,4.20
2023-04-15T15:28:46.918Z,3.20
2023-04-15T15:31:14.810Z,2.20
2023-04-15T15:33:41.891Z,3.30
2023-04-15T15:36:11.035Z,4.18
2023-04-15T15:38:37.975Z,2.30
2023-04-15T15:41:05.072Z,2.58
2023-04-15T15:43:32.032Z,1.35
2023-04-15T15:45:59.069Z,2.97
2023-04-15T15:48:26.226Z,2.63
2023-04-15T15:50:53.841Z,2.10
2023-04-15T15:53:21.055Z,0.93
2023-04-15T15:55:48.607Z,1.40
2023-04-15T15:58:16.021Z,2.72
2023-04-15T16:00:43.153Z,2.50
2023-04-15T16:03:10.300Z,2.50
2023-04-15T16:05:38.717Z,1.40
2023-04-15T16:08:06.196Z,3.03
2023-04-15T16:10:33.341Z,2.58
2023-04-15T16:13:00.336Z,2.35
2023-04-15T16:15:27.379Z,2.85
2023-04-15T16:17:54.476Z,4.00
2023-04-15T16:20:21.523Z,3.47
2023-04-15T16:22:48.521Z,3.10
2023-04-15T16:25:15.563Z,3.78
2023-04-15T16:27:56.525Z,2.83
2023-04-15T16:30:29.136Z,3.85
2023-04-15T16:32:57.080Z,3.10
2023-04-15T16:35:24.080Z,3.05
2023-04-15T16:37:51.031Z,2.17
2023-04-15T16:40:18.236Z,2.60
2023-04-15T16:42:45.519Z,2.05
2023-04-15T16:45:12.484Z,1.40
2023-04-15T16:47:39.624Z,1.90
2023-04-15T16:50:07.247Z,1.88
2023-04-15T16:52:34.266Z,2.20
2023-04-15T16:55:01.314Z,2.00
2023-04-15T16:57:31.680Z,2.17
2023-04-15T17:00:16.010Z,2.97
2023-04-15T17:02:43.106Z,4.32
2023-04-15T17:05:10.219Z,3.55
2023-04-15T17:07:37.160Z,2.53
2023-04-15T17:10:04.355Z,3.25
2023-04-15T17:12:31.953Z,4.22
2023-04-15T17:14:58.948Z,2.90
2023-04-15T17:17:26.077Z,2.63
2023-04-15T17:19:53.045Z,2.55
2023-04-15T17:22:20.075Z,2.83
2023-04-15T17:24:47.021Z,2.88
2023-04-15T17:27:13.913Z,3.85
2023-04-15T17:29:41.133Z,3.22
2023-04-15T17:32:08.287Z,2.20
2023-04-15T17:34:50.013Z,2.17
2023-04-15T17:37:18.462Z,3.13
2023-04-15T17:42:14.199Z,4.07
2023-04-15T17:44:41.287Z,5.27
2023-04-15T17:47:08.363Z,4.57
2023-04-15T17:49:37.928Z,4.00
2023-04-15T17:52:05.132Z,3.90
2023-04-15T17:54:32.132Z,4.47
2023-04-15T17:57:00.255Z,4.35
2023-04-15T17:59:28.015Z,3.47
2023-04-15T18:01:55.504Z,5.38
2023-04-15T18:04:24.956Z,4.20
2023-04-15T18:06:53.598Z,2.92
2023-04-15T18:09:20.619Z,2.78
2023-04-15T18:11:48.933Z,4.38
2023-04-15T18:14:30.736Z,3.78
2023-04-15T18:17:01.406Z,4.20
2023-04-15T18:21:55.418Z,2.50
2023-04-15T18:24:22.992Z,3.28
2023-04-15T18:26:50.062Z,2.65
2023-04-15T18:29:18.651Z,2.85
2023-04-15T18:31:45.662Z,3.30
2023-04-15T18:34:13.155Z,4.03
2023-04-15T18:41:33.997Z,4.60
2023-04-15T18:44:01.105Z,5.72
2023-04-15T18:46:28.931Z,4.38
2023-04-15T18:48:55.920Z,4.25
2023-04-15T18:51:22.910Z,3.85
2023-04-15T18:53:49.883Z,4.15
2023-04-15T18:56:17.660Z,3.65
2023-04-15T18:59:22.918Z,5.93
2023-04-15T19:01:32.466Z,3.13
2023-04-15T19:03:59.720Z,4.25
2023-04-15T19:06:27.390Z,3.45
2023-04-15T19:08:54.932Z,3.05
2023-04-15T19:13:49.145Z,6.32
2023-04-15T19:16:16.212Z,4.97
2023-04-15T19:18:43.336Z,13.32
2023-04-15T19:21:12.294Z,9.05
2023-04-15T19:23:42.920Z,5.85
2023-04-15T19:26:10.416Z,6.10
2023-04-15T19:33:31.642Z,3.97
2023-04-15T19:38:28.329Z,2.50
2023-04-15T19:40:55.320Z,2.30
2023-04-15T19:43:22.252Z,2.33
2023-04-15T19:45:52.436Z,4.15
2023-04-15T19:48:19.627Z,5.50
2023-04-15T19:50:46.620Z,3.45
2023-04-15T19:53:13.694Z,3.75
2023-04-15T19:55:40.681Z,3.10
2023-04-15T19:58:07.693Z,4.10
2023-04-15T20:00:34.811Z,2.80
2023-04-15T20:03:02.147Z,3.42
2023-04-15T20:07:57.088Z,4.13
2023-04-15T20:10:25.716Z,3.90
2023-04-15T20:12:53.329Z,4.22
2023-04-15T20:15:22.801Z,3.28
2023-04-15T20:17:50.475Z,4.40
2023-04-15T20:20:17.470Z,2.10
2023-04-15T20:22:44.458Z,3.05
2023-04-15T20:25:11.512Z,3.95
2023-04-15T20:27:38.484Z,2.58
2023-04-15T20:30:06.616Z,6.05
2023-04-15T20:32:36.815Z,6.18
2023-04-15T20:35:07.175Z,5.93
2023-04-15T20:37:34.630Z,4.15
2023-04-15T20:42:33.394Z,3.20
2023-04-15T20:45:01.386Z,2.80
2023-04-15T20:47:28.638Z,2.33
2023-04-15T20:49:55.973Z,2.13
2023-04-15T20:52:22.919Z,5.65
2023-04-15T20:54:50.274Z,2.42
2023-04-15T20:57:17.354Z,3.30
2023-04-15T20:59:44.399Z,2.95
2023-04-15T21:02:11.653Z,2.10
2023-04-15T21:04:38.958Z,2.17
2023-04-15T21:07:07.128Z,2.38
2023-04-15T21:09:34.122Z,2.30
2023-04-15T21:12:02.176Z,2.03
2023-04-15T21:14:29.560Z,2.63
2023-04-15T21:16:59.397Z,1.88
2023-04-15T21:19:26.366Z,1.33
2023-04-15T21:21:53.326Z,1.02
2023-04-15T21:24:20.263Z,1.35
2023-04-15T21:26:47.329Z,2.60
2023-04-15T21:29:14.618Z,1.75
2023-04-15T21:31:42.184Z,1.85
2023-04-15T21:36:37.977Z,1.92
2023-04-15T21:39:05.485Z,2.40
2023-04-15T21:41:36.770Z,2.20
2023-04-15T21:44:04.300Z,1.90
2023-04-15T21:49:00.419Z,1.70
2023-04-15T21:51:27.835Z,1.50
2023-04-15T21:53:54.841Z,1.80
2023-04-15T21:56:24.306Z,1.92
2023-04-15T21:58:54.655Z,1.75
2023-04-15T22:01:21.604Z,1.42
2023-04-15T22:03:49.010Z,2.50
2023-04-15T22:08:53.128Z,2.70
2023-04-15T22:11:27.446Z,2.25
2023-04-15T22:13:54.950Z,2.88
2023-04-15T22:16:22.259Z,2.30
2023-04-15T22:18:49.511Z,2.10
2023-04-15T22:21:16.506Z,1.83
2023-04-15T22:23:47.463Z,2.38
2023-04-15T22:26:14.905Z,2.40
2023-04-15T22:28:41.976Z,1.85
2023-04-15T22:31:09.137Z,1.15
2023-04-15T22:33:36.214Z,1.10
2023-04-15T22:36:03.526Z,1.13
2023-04-15T22:38:30.664Z,0.82
2023-04-15T22:40:58.492Z,1.13
2023-04-15T22:43:26.173Z,1.30
2023-04-15T22:48:24.027Z,0.70
2023-04-15T22:50:51.030Z,0.80
2023-04-15T22:53:18.289Z,0.98
2023-04-15T22:55:49.130Z,0.70
2023-04-15T22:58:17.186Z,0.80
2023-04-15T23:00:44.550Z,0.90
2023-04-15T23:03:11.867Z,0.85
2023-04-15T23:05:41.289Z,0.77
2023-04-15T23:08:08.460Z,1.13
2023-04-15T23:10:35.652Z,1.08
2023-04-15T23:13:02.753Z,1.13
2023-04-15T23:15:29.668Z,1.80
2023-04-15T23:17:56.685Z,1.55
2023-04-15T23:20:23.696Z,1.30
2023-04-15T23:22:50.640Z,1.02
2023-04-15T23:25:17.666Z,0.95
2023-04-15T23:27:44.634Z,0.90
2023-04-15T23:30:11.652Z,2.22
2023-04-15T23:32:38.759Z,2.05
2023-04-15T23:35:06.232Z,1.05
2023-04-15T23:37:33.222Z,0.80
2023-04-15T23:40:00.235Z,0.75
2023-04-15T23:42:27.198Z,0.90
2023-04-15T23:44:54.238Z,0.52
2023-04-15T23:47:21.732Z,0.65
2023-04-15T23:49:48.776Z,0.73
2023-04-15T23:52:15.855Z,0.82
2023-04-15T23:54:43.015Z,0.98
2023-04-15T23:57:10.119Z,0.68
2023-04-15T23:59:37.013Z,0.50
